sensor_id;sensor_type;location;lat;lon;timestamp;P1;durP1;ratioP1;P2;durP2;ratioP2
20995;SDS011;10656;52.200;21.052;2023-05-10T00:05:17;14.07;;;9.63;;
20995;SDS011;10656;52.200;21.052;2023-05-10T00:25:27;12.53;;;8.70;;
20995;SDS011;10656;52.200;21.052;2023-05-10T00:50:51;13.50;;;8.50;;
20995;SDS011;10656;52.200;21.052;2023-05-10T01:10:47;13.07;;;8.90;;
20995;SDS011;10656;52.200;21.052;2023-05-10T01:41:26;10.13;;;7.10;;
20995;SDS011;10656;52.200;21.052;2023-05-10T02:12:04;11.50;;;7.93;;
20995;SDS011;10656;52.200;21.052;2023-05-10T02:42:32;8.07;;;7.03;;
20995;SDS011;10656;52.200;21.052;2023-05-10T02:46:53;9.67;;;7.47;;
20995;SDS011;10656;52.200;21.052;2023-05-10T03:12:56;9.77;;;7.20;;
20995;SDS011;10656;52.200;21.052;2023-05-10T03:17:19;8.53;;;6.30;;
20995;SDS011;10656;52.200;21.052;2023-05-10T03:43:03;8.53;;;6.20;;
20995;SDS011;10656;52.200;21.052;2023-05-10T04:08:33;10.10;;;7.00;;
20995;SDS011;10656;52.200;21.052;2023-05-10T04:19:42;10.07;;;6.07;;
20995;SDS011;10656;52.200;21.052;2023-05-10T04:27:58;7.73;;;5.80;;
20995;SDS011;10656;52.200;21.052;2023-05-10T04:48:17;8.37;;;5.50;;
20995;SDS011;10656;52.200;21.052;2023-05-10T05:38:29;11.17;;;5.03;;
20995;SDS011;10656;52.200;21.052;2023-05-10T05:59:30;7.83;;;4.73;;
20995;SDS011;10656;52.200;21.052;2023-05-10T06:55:10;5.20;;;3.60;;
20995;SDS011;10656;52.200;21.052;2023-05-10T07:25:13;5.37;;;3.20;;
20995;SDS011;10656;52.200;21.052;2023-05-10T08:00:58;4.20;;;2.67;;
20995;SDS011;10656;52.200;21.052;2023-05-10T08:36:30;3.07;;;2.57;;
20995;SDS011;10656;52.200;21.052;2023-05-10T09:01:48;3.73;;;2.90;;
20995;SDS011;10656;52.200;21.052;2023-05-10T09:22:15;3.87;;;2.90;;
20995;SDS011;10656;52.200;21.052;2023-05-10T09:47:07;5.50;;;2.50;;
20995;SDS011;10656;52.200;21.052;2023-05-10T09:54:14;4.07;;;2.70;;
20995;SDS011;10656;52.200;21.052;2023-05-10T10:07:28;2.93;;;2.50;;
20995;SDS011;10656;52.200;21.052;2023-05-10T10:37:47;6.93;;;2.60;;
20995;SDS011;10656;52.200;21.052;2023-05-10T11:08:42;3.47;;;2.97;;
20995;SDS011;10656;52.200;21.052;2023-05-10T11:34:06;5.10;;;2.57;;
20995;SDS011;10656;52.200;21.052;2023-05-10T11:59:24;6.27;;;2.57;;
20995;SDS011;10656;52.200;21.052;2023-05-10T12:59:56;3.60;;;2.33;;
20995;SDS011;10656;52.200;21.052;2023-05-10T14:46:17;2.95;;;2.30;;
20995;SDS011;10656;52.200;21.052;2023-05-10T15:11:43;2.97;;;2.30;;
20995;SDS011;10656;52.200;21.052;2023-05-10T15:31:48;4.43;;;2.70;;
20995;SDS011;10656;52.200;21.052;2023-05-10T16:02:27;5.03;;;2.65;;
20995;SDS011;10656;52.200;21.052;2023-05-10T16:27:39;2.77;;;2.20;;
20995;SDS011;10656;52.200;21.052;2023-05-10T16:53:02;3.40;;;2.30;;
20995;SDS011;10656;52.200;21.052;2023-05-10T17:13:12;4.90;;;2.20;;
20995;SDS011;10656;52.200;21.052;2023-05-10T17:43:48;6.97;;;2.60;;
20995;SDS011;10656;52.200;21.052;2023-05-10T18:14:17;6.17;;;3.20;;
20995;SDS011;10656;52.200;21.052;2023-05-10T18:39:17;6.37;;;3.60;;
20995;SDS011;10656;52.200;21.052;2023-05-10T19:04:55;5.60;;;3.90;;
20995;SDS011;10656;52.200;21.052;2023-05-10T19:40:23;8.50;;;4.63;;
